Time;durP1;ratioP1;P1;durP2;ratioP2;P2;SDS_P1;SDS_P2;PMS_P1;PMS_P2;Temp;Humidity;BMP_temperature;BMP_pressure;BME280_temperature;BME280_humidity;BME280_pressure;Samples;Min_cycle;Max_cycle;Signal;HPM_P1;HPM_P2
2020/12/17 00:00:05;;;;;;;11.13;5.57;;;11.60;91.10;;;10.62;82.25;100378.41;4981128;28;20106;-79
2020/12/17 00:02:32;;;;;;;9.20;5.15;;;11.60;90.90;;;10.62;82.17;100378.41;4981502;28;20058;-79
2020/12/17 00:04:58;;;;;;;9.50;5.28;;;11.60;91.00;;;10.62;82.01;100372.97;4980885;28;20079;-79
2020/12/17 00:07:25;;;;;;;8.95;5.13;;;11.60;90.60;;;10.62;81.98;100375.69;4981266;28;20488;-79
2020/12/17 00:09:52;;;;;;;10.05;5.28;;;11.60;90.50;;;10.62;82.09;100378.41;4980947;28;20102;-79
2020/12/17 00:12:19;;;;;;;9.43;5.60;;;11.60;90.60;;;10.62;82.16;100378.41;4981138;28;20102;-79
2020/12/17 00:14:46;;;;;;;10.13;5.35;;;11.60;90.60;;;10.62;81.90;100367.50;4981095;28;20077;-79
2020/12/17 00:17:13;;;;;;;8.73;5.35;;;11.60;90.40;;;10.63;82.06;100374.66;4980783;28;20085;-79
2020/12/17 00:19:40;;;;;;;9.88;4.90;;;11.70;90.40;;;10.66;82.01;100368.81;4981118;28;20549;-79
2020/12/17 00:22:07;;;;;;;9.27;5.05;;;11.70;90.50;;;10.66;81.96;100368.81;4980965;28;20085;-79
2020/12/17 00:24:34;;;;;;;11.10;5.80;;;11.70;90.40;;;10.67;81.71;100375.97;4981448;28;20134;-79
2020/12/17 00:27:01;;;;;;;10.02;5.43;;;11.70;90.10;;;10.70;81.91;100376.44;4980530;28;20134;-79
2020/12/17 00:29:28;;;;;;;8.35;5.10;;;11.70;90.20;;;10.73;81.89;100375.19;4980537;28;20082;-79
2020/12/17 00:31:56;;;;;;;9.38;4.90;;;11.70;90.30;;;10.74;82.06;100377.75;4973870;28;20097;-79
2020/12/17 00:34:22;;;;;;;10.65;5.35;;;11.70;90.50;;;10.75;81.94;100384.03;4980769;28;20045;-79
2020/12/17 00:36:53;;;;;;;20.13;5.97;;;11.60;90.70;;;10.76;81.93;100381.13;4980310;28;20082;-79
2020/12/17 00:39:20;;;;;;;10.50;5.40;;;11.60;90.90;;;10.77;81.96;100376.50;4979930;28;20106;-79
2020/12/17 00:41:47;;;;;;;8.75;4.97;;;11.60;91.00;;;10.75;81.91;100379.41;4980607;28;20042;-79
2020/12/17 00:44:14;;;;;;;11.43;5.18;;;11.60;91.00;;;10.75;81.49;100378.56;4978845;28;20418;-79
2020/12/17 00:46:41;;;;;;;11.30;4.85;;;11.60;90.60;;;10.75;81.48;100375.84;4979805;28;20122;-79
2020/12/17 00:49:08;;;;;;;11.73;5.18;;;11.60;90.50;;;10.77;81.72;100365.63;4980663;28;20129;-79
2020/12/17 00:51:35;;;;;;;9.52;4.75;;;11.60;90.70;;;10.71;81.56;100356.34;4980792;28;20074;-79
2020/12/17 00:54:02;;;;;;;9.88;5.28;;;11.60;90.40;;;10.73;81.68;100350.72;4980144;28;20046;-79
2020/12/17 00:56:29;;;;;;;8.07;5.05;;;11.60;90.40;;;10.74;81.52;100352.41;4979974;28;20070;-79
2020/12/17 00:58:55;;;;;;;8.95;5.00;;;11.60;90.60;;;10.74;81.58;100350.53;4980627;28;20050;-79
2020/12/17 01:01:22;;;;;;;8.55;4.72;;;11.60;90.60;;;10.77;81.60;100349.28;4979535;28;20813;-79
2020/12/17 01:03:49;;;;;;;9.48;5.10;;;11.60;90.70;;;10.78;81.45;100356.44;4980712;28;20051;-79
2020/12/17 01:06:17;;;;;;;7.85;4.68;;;11.60;90.70;;;10.77;80.92;100354.72;4979142;28;20102;-79
2020/12/17 01:08:44;;;;;;;9.23;5.07;;;11.60;90.30;;;10.76;81.25;100355.78;4986065;28;20065;-79
2020/12/17 01:11:10;;;;;;;9.18;5.05;;;11.60;90.50;;;10.78;81.32;100361.88;4999111;28;20077;-79
2020/12/17 01:13:37;;;;;;;9.35;4.93;;;11.60;90.80;;;10.79;81.57;100358.09;4998788;28;20081;-79
2020/12/17 01:16:04;;;;;;;8.02;5.07;;;11.60;90.90;;;10.80;81.58;100359.81;4998532;28;20062;-79
2020/12/17 01:18:30;;;;;;;8.82;4.75;;;11.50;91.20;;;10.79;81.60;100362.72;4999207;28;20066;-79
2020/12/17 01:20:57;;;;;;;11.98;5.68;;;11.50;91.30;;;10.76;81.41;100359.34;4999563;28;20793;-79
2020/12/17 01:23:25;;;;;;;9.02;4.93;;;11.50;91.20;;;10.76;81.53;100358.50;4998980;28;20129;-79
2020/12/17 01:25:51;;;;;;;8.82;4.82;;;11.50;91.30;;;10.77;81.64;100357.44;4997850;28;20113;-79
2020/12/17 01:28:18;;;;;;;12.30;4.88;;;11.50;91.40;;;10.77;81.68;100360.19;4999401;28;20081;-79
2020/12/17 01:30:45;;;;;;;9.50;5.50;;;11.40;91.50;;;10.77;81.53;100365.63;4998389;28;20141;-79
2020/12/17 01:33:11;;;;;;;9.57;4.57;;;11.40;91.40;;;10.75;81.55;100356.81;4999628;28;20402;-79
2020/12/17 01:35:38;;;;;;;8.00;4.82;;;11.40;91.30;;;10.76;81.57;100356.63;4998425;28;20066;-79
2020/12/17 01:38:05;;;;;;;11.00;5.10;;;11.40;91.50;;;10.76;81.67;100362.06;4998390;28;20045;-79
2020/12/17 01:40:32;;;;;;;9.48;4.55;;;11.40;91.40;;;10.76;81.23;100370.22;4998898;28;20130;-79
2020/12/17 01:43:00;;;;;;;10.15;4.82;;;11.50;91.50;;;10.75;81.42;100368.53;4998288;28;20128;-79
2020/12/17 01:45:27;;;;;;;8.13;4.38;;;11.50;91.30;;;10.74;81.10;100376.91;4998368;28;20078;-79
2020/12/17 01:47:54;;;;;;;8.88;4.75;;;11.50;90.90;;;10.72;81.39;100379.81;4999632;28;20114;-79
2020/12/17 01:50:22;;;;;;;12.30;4.47;;;11.50;90.70;;;10.76;81.26;100369.41;4998871;28;20084;-79
2020/12/17 01:52:48;;;;;;;8.57;4.53;;;11.60;90.90;;;10.78;81.46;100378.22;4999081;28;20503;-79
2020/12/17 01:55:16;;;;;;;8.57;4.80;;;11.60;90.80;;;10.79;81.39;100385.31;4998669;28;20077;-79
2020/12/17 01:57:45;;;;;;;8.50;4.32;;;11.50;91.10;;;10.78;81.42;100394.53;4998849;28;20057;-79
2020/12/17 02:00:13;;;;;;;9.85;4.47;;;11.50;91.10;;;10.76;81.45;100385.72;4998529;28;20047;-79
2020/12/17 02:02:41;;;;;;;7.80;4.40;;;11.50;91.00;;;10.78;81.54;100382.81;4998209;28;20062;-79
2020/12/17 02:05:08;;;;;;;8.85;4.07;;;11.60;91.20;;;10.79;81.69;100388.03;4998270;28;20070;-79
2020/12/17 02:07:34;;;;;;;9.32;4.53;;;11.60;91.30;;;10.79;81.87;100395.38;4998098;28;20047;-79
2020/12/17 02:10:02;;;;;;;9.38;4.90;;;11.60;91.20;;;10.78;81.90;100389.09;4998241;28;20489;-79
2020/12/17 02:12:47;;;;;;;10.48;4.90;;;11.60;91.40;;;10.80;81.86;100384.31;4998758;28;20054;-79
2020/12/17 02:15:14;;;;;;;8.13;4.90;;;11.60;91.50;;;10.82;81.86;100386.84;4998004;28;20046;-79
2020/12/17 02:17:41;;;;;;;8.85;4.15;;;11.60;91.50;;;10.79;81.96;100389.94;4998359;28;20054;-79
2020/12/17 02:20:09;;;;;;;7.25;4.55;;;11.60;91.60;;;10.80;82.24;100391.63;4998526;28;20133;-79
2020/12/17 02:22:36;;;;;;;10.63;4.60;;;11.60;91.60;;;10.82;82.03;100387.69;4998825;28;20061;-79
2020/12/17 02:25:06;;;;;;;8.15;4.80;;;11.60;91.70;;;10.82;82.42;100387.69;4997726;28;20584;-79
2020/12/17 02:27:33;;;;;;;7.97;4.88;;;11.60;91.80;;;10.80;82.44;100372.59;4998742;28;20133;-79
2020/12/17 02:29:59;;;;;;;9.63;4.75;;;11.60;91.90;;;10.80;82.47;100375.31;4998293;28;20061;-79
2020/12/17 02:32:26;;;;;;;8.23;4.72;;;11.60;91.90;;;10.81;82.35;100377.81;4998183;28;20089;-79
2020/12/17 02:34:53;;;;;;;8.05;4.80;;;11.50;92.10;;;10.80;82.42;100359.81;4997618;28;20097;-79
2020/12/17 02:37:20;;;;;;;9.05;4.50;;;11.60;91.90;;;10.80;82.51;100365.25;4998377;28;20042;-79
2020/12/17 02:39:47;;;;;;;10.45;5.30;;;11.50;92.10;;;10.81;82.53;100366.91;4997659;28;20121;-79
2020/12/17 02:42:14;;;;;;;8.68;4.68;;;11.50;92.20;;;10.79;82.63;100365.44;4997558;28;20561;-79
2020/12/17 02:44:41;;;;;;;7.15;4.43;;;11.50;92.20;;;10.80;82.56;100364.41;4997752;28;20054;-79
2020/12/17 02:47:08;;;;;;;9.98;4.57;;;11.60;92.10;;;10.82;82.36;100355.00;4997445;28;20078;-79
2020/12/17 02:49:35;;;;;;;8.82;4.53;;;11.60;92.10;;;10.81;82.48;100349.75;4998389;28;20133;-79
2020/12/17 02:52:02;;;;;;;7.85;4.07;;;11.60;92.10;;;10.81;82.39;100350.59;4998382;28;20070;-79
2020/12/17 02:54:28;;;;;;;10.50;4.85;;;11.50;92.10;;;10.81;82.52;100344.31;5001941;28;20050;-79
2020/12/17 02:56:55;;;;;;;9.98;4.82;;;11.50;92.10;;;10.81;82.24;100350.59;5001730;28;20065;-79
2020/12/17 02:59:23;;;;;;;8.85;5.10;;;11.50;92.20;;;10.76;82.28;100345.72;5002152;28;20073;-79
2020/12/17 03:01:50;;;;;;;9.00;4.30;;;11.50;92.00;;;10.79;82.14;100351.81;5001702;28;20096;-79
2020/12/17 03:04:17;;;;;;;8.27;4.60;;;11.60;91.80;;;10.80;82.12;100365.25;5001531;28;20085;-79
2020/12/17 03:06:43;;;;;;;8.60;4.45;;;11.60;91.80;;;10.80;82.31;100364.41;4996566;28;20050;-79
2020/12/17 03:09:10;;;;;;;7.72;4.25;;;11.50;91.90;;;10.81;82.15;100345.16;4981710;28;20167;-79
2020/12/17 03:11:37;;;;;;;8.02;4.47;;;11.50;92.10;;;10.80;82.00;100351.66;4981935;28;20104;-79
2020/12/17 03:14:03;;;;;;;8.52;4.80;;;11.50;92.10;;;10.79;82.11;100347.22;4982429;28;20137;-79
2020/12/17 03:16:32;;;;;;;8.20;4.40;;;11.50;92.00;;;10.80;82.09;100354.38;4982090;28;20047;-79
2020/12/17 03:19:01;;;;;;;8.40;4.68;;;11.50;92.00;;;10.80;82.12;100359.81;4981661;28;20053;-79
2020/12/17 03:21:28;;;;;;;8.23;4.03;;;11.50;91.90;;;10.81;81.68;100361.47;4981712;28;20121;-79
2020/12/17 03:23:55;;;;;;;7.57;3.88;;;11.60;91.50;;;10.76;81.48;100353.06;4981655;28;20543;-79
2020/12/17 03:26:22;;;;;;;16.88;5.18;;;11.60;91.20;;;10.78;81.66;100353.72;4982298;28;20130;-79
2020/12/17 03:28:49;;;;;;;11.88;4.70;;;11.60;91.40;;;10.80;81.89;100357.09;4981932;28;20066;-79
2020/12/17 03:31:16;;;;;;;7.35;4.47;;;11.60;91.70;;;10.83;81.91;100359.41;4982531;28;20065;-79
2020/12/17 03:33:45;;;;;;;7.93;4.75;;;11.60;91.60;;;10.84;81.84;100365.72;4982357;28;20861;-79
2020/12/17 03:36:11;;;;;;;8.45;4.35;;;11.50;91.60;;;10.82;81.61;100371.34;4981987;28;20093;-79
2020/12/17 03:38:38;;;;;;;8.32;4.50;;;11.50;91.70;;;10.80;81.72;100365.25;4981331;28;20051;-79
2020/12/17 03:41:05;;;;;;;8.30;4.75;;;11.50;91.80;;;10.77;81.70;100362.91;4981961;28;20042;-79
2020/12/17 03:43:32;;;;;;;9.15;5.05;;;11.50;91.60;;;10.81;81.89;100356.03;4981963;28;20141;-79
2020/12/17 03:45:58;;;;;;;9.48;4.35;;;11.50;91.70;;;10.81;81.54;100358.75;4981731;28;20074;-79
2020/12/17 03:48:25;;;;;;;8.30;4.80;;;11.50;91.60;;;10.81;81.65;100355.19;4981372;28;20058;-79
2020/12/17 03:50:53;;;;;;;8.60;4.35;;;11.50;91.80;;;10.81;81.84;100353.31;4981375;28;20053;-79
2020/12/17 03:53:19;;;;;;;7.90;4.40;;;11.50;91.80;;;10.78;81.22;100352.88;4981188;28;20105;-79
2020/12/17 03:55:46;;;;;;;10.10;4.68;;;11.50;91.60;;;10.80;81.79;100348.91;4981040;28;20549;-79
2020/12/17 03:58:13;;;;;;;8.90;4.65;;;11.50;91.80;;;10.82;81.61;100348.75;4981078;28;20051;-79
2020/12/17 04:00:40;;;;;;;8.63;4.47;;;11.50;91.70;;;10.83;81.60;100353.97;4981340;28;20047;-79
2020/12/17 04:03:07;;;;;;;8.30;4.85;;;11.50;91.90;;;10.82;81.63;100344.13;4981331;28;20129;-79
2020/12/17 04:05:33;;;;;;;11.50;4.50;;;11.50;92.00;;;10.83;81.59;100343.06;4980186;28;20047;-79
2020/12/17 04:08:01;;;;;;;9.00;4.75;;;11.50;92.10;;;10.82;81.93;100344.13;4980944;28;20090;-79
2020/12/17 04:10:28;;;;;;;10.80;4.68;;;11.50;92.10;;;10.82;81.81;100338.69;4981582;28;20422;-79
2020/12/17 04:12:54;;;;;;;7.15;4.80;;;11.50;92.10;;;10.83;81.60;100332.19;4981437;28;20106;-79
2020/12/17 04:15:21;;;;;;;10.10;4.70;;;11.50;92.20;;;10.82;81.72;100330.50;4981114;28;20078;-79
2020/12/17 04:17:48;;;;;;;7.93;4.53;;;11.50;92.20;;;10.83;81.72;100328.63;4980638;28;20122;-79
2020/12/17 04:20:15;;;;;;;9.10;4.38;;;11.40;91.90;;;10.81;81.45;100330.69;4980823;28;20117;-79
2020/12/17 04:22:41;;;;;;;9.77;5.07;;;11.50;92.00;;;10.80;81.54;100327.16;4981300;28;20043;-79
2020/12/17 04:25:09;;;;;;;11.20;5.20;;;11.50;92.00;;;10.80;81.61;100324.41;4980089;28;20070;-79
2020/12/17 04:27:36;;;;;;;7.20;4.50;;;11.40;92.00;;;10.79;81.75;100325.44;4980846;28;20078;-79
2020/12/17 04:30:03;;;;;;;8.65;5.00;;;11.40;92.10;;;10.78;81.55;100323.78;4981494;28;20515;-79
2020/12/17 04:32:30;;;;;;;9.90;4.90;;;11.40;92.00;;;10.79;81.65;100330.88;4981436;28;20047;-79
2020/12/17 04:34:56;;;;;;;10.45;5.22;;;11.40;91.90;;;10.81;81.58;100333.41;4980266;28;20114;-79
2020/12/17 04:37:23;;;;;;;10.32;5.30;;;11.40;91.80;;;10.77;80.79;100327.50;4980141;28;20385;-79
2020/12/17 04:39:50;;;;;;;9.18;4.72;;;11.50;91.50;;;10.79;81.42;100322.72;4980691;28;20182;-79
2020/12/17 04:42:20;;;;;;;9.40;4.78;;;11.50;91.90;;;10.79;81.51;100330.88;4980034;28;20055;-79
2020/12/17 04:44:47;;;;;;;10.98;5.07;;;11.50;91.90;;;10.76;81.24;100323.13;4981205;28;20138;-79
2020/12/17 04:47:20;;;;;;;9.10;4.95;;;11.50;91.70;;;10.76;81.42;100332.13;4980161;28;20066;-79
2020/12/17 04:49:50;;;;;;;8.75;5.13;;;11.50;91.70;;;10.80;81.35;100331.75;4980606;28;20137;-79
2020/12/17 04:52:18;;;;;;;8.70;4.75;;;11.50;91.70;;;10.80;81.17;100343.47;4980640;28;20490;-79
2020/12/17 04:54:45;;;;;;;9.60;5.05;;;11.50;91.50;;;10.78;81.25;100342.00;4979689;28;20046;-79
2020/12/17 04:57:14;;;;;;;11.10;5.63;;;11.50;91.80;;;10.76;81.33;100353.06;4979944;28;20059;-79
2020/12/17 04:59:45;;;;;;;11.38;5.07;;;11.50;91.30;;;10.79;81.06;100347.22;4979734;28;20129;-79
2020/12/17 05:02:14;;;;;;;10.50;5.10;;;11.50;91.40;;;10.78;81.05;100355.59;4980204;28;20114;-79
2020/12/17 05:04:43;;;;;;;9.45;5.40;;;11.50;91.30;;;10.79;81.29;100341.78;4980251;28;20137;-79
2020/12/17 05:07:12;;;;;;;9.93;5.68;;;11.50;91.70;;;10.80;81.04;100348.09;4980229;28;20468;-79
2020/12/17 05:09:42;;;;;;;10.20;5.72;;;11.50;91.50;;;10.76;81.25;100355.78;4980630;28;20078;-79
2020/12/17 05:12:10;;;;;;;9.90;5.20;;;11.50;91.10;;;10.77;81.01;100349.28;4979915;28;20053;-79
2020/12/17 05:14:37;;;;;;;8.82;4.90;;;11.50;91.10;;;10.79;80.74;100347.22;4980116;28;20073;-79
2020/12/17 05:17:06;;;;;;;10.70;5.47;;;11.50;90.80;;;10.81;80.90;100349.75;4978543;28;20129;-79
2020/12/17 05:19:33;;;;;;;10.23;5.32;;;11.60;91.00;;;10.78;80.86;100350.16;4980370;28;20074;-79
2020/12/17 05:22:02;;;;;;;9.13;5.45;;;11.60;90.60;;;10.79;80.98;100360.00;4979980;28;20102;-79
2020/12/17 05:24:29;;;;;;;13.80;5.88;;;11.60;90.70;;;10.82;81.26;100365.91;4979682;28;20069;-79
2020/12/17 05:26:58;;;;;;;12.18;5.75;;;11.60;91.00;;;10.80;81.34;100357.09;4962007;28;20118;-79
2020/12/17 05:29:25;;;;;;;10.57;5.53;;;11.60;91.00;;;10.79;80.92;100351.81;4979728;28;20055;-79
2020/12/17 05:31:52;;;;;;;10.45;5.20;;;11.60;90.50;;;10.80;80.68;100361.69;4980423;28;20509;-79
2020/12/17 05:34:20;;;;;;;9.90;5.40;;;11.60;90.80;;;10.79;81.03;100363.53;4980018;28;20074;-79
2020/12/17 05:36:48;;;;;;;9.23;5.72;;;11.60;90.60;;;10.78;80.94;100367.31;4979187;28;20153;-79
2020/12/17 05:39:17;;;;;;;11.90;5.93;;;11.60;90.20;;;10.82;80.98;100376.78;4979494;28;20159;-79
2020/12/17 05:41:46;;;;;;;13.45;5.93;;;11.60;90.70;;;10.81;81.16;100372.38;4980095;28;20078;-79
2020/12/17 05:44:15;;;;;;;11.55;5.40;;;11.60;91.10;;;10.83;81.31;100381.19;4979507;28;20066;-79
2020/12/17 05:46:44;;;;;;;10.65;5.63;;;11.60;90.70;;;10.84;81.35;100373.88;4979255;28;20439;-79
2020/12/17 05:49:17;;;;;;;9.82;5.63;;;11.60;90.90;;;10.84;81.22;100374.72;4980005;28;20085;-79
2020/12/17 05:51:46;;;;;;;11.77;5.53;;;11.60;90.80;;;10.87;81.37;100379.81;4979106;28;20078;-79
2020/12/17 05:54:23;;;;;;;9.05;5.65;;;11.60;90.80;;;10.87;81.25;100385.25;4979540;28;20133;-79
2020/12/17 05:57:03;;;;;;;9.93;5.60;;;11.60;91.20;;;10.85;81.24;100379.16;4979626;28;20088;-79
2020/12/17 05:59:30;;;;;;;9.10;5.80;;;11.60;91.20;;;10.86;81.03;100377.25;4979641;28;20046;-79
2020/12/17 06:01:57;;;;;;;11.35;6.25;;;11.60;91.10;;;10.86;81.10;100399.88;4979534;28;20077;-79
2020/12/17 06:04:24;;;;;;;11.35;5.30;;;11.60;91.20;;;10.83;81.33;100389.34;4980113;28;20066;-79
2020/12/17 06:07:03;;;;;;;13.63;6.00;;;11.60;91.20;;;10.84;81.54;100391.06;4978788;28;20093;-79
2020/12/17 06:09:36;;;;;;;11.20;5.68;;;11.60;91.20;;;10.86;81.81;100397.16;4979463;28;20053;-79
2020/12/17 06:12:03;;;;;;;14.57;5.90;;;11.60;91.50;;;10.86;81.95;100399.88;4979241;28;20069;-79
2020/12/17 06:14:33;;;;;;;11.20;6.20;;;11.50;91.90;;;10.83;81.93;100408.41;4979121;28;20055;-79
2020/12/17 06:17:09;;;;;;;10.55;6.05;;;11.60;91.70;;;10.84;82.13;100410.13;4978783;28;20809;-79
2020/12/17 06:19:37;;;;;;;14.65;7.88;;;11.60;91.80;;;10.84;82.03;100409.28;4978566;28;20092;-79
2020/12/17 06:22:10;;;;;;;13.52;6.63;;;11.50;92.10;;;10.84;82.23;100407.38;4978780;28;20049;-79
2020/12/17 06:24:38;;;;;;;10.40;6.57;;;11.50;92.30;;;10.84;82.41;100415.56;4977313;28;20127;-81
2020/12/17 06:27:09;;;;;;;13.52;7.80;;;11.50;92.50;;;10.86;82.28;100421.66;4977619;28;20050;-81
2020/12/17 06:29:49;;;;;;;10.82;6.47;;;11.50;92.80;;;10.85;82.37;100419.97;4977756;28;20059;-81
2020/12/17 06:32:19;;;;;;;12.90;7.03;;;11.40;92.80;;;10.85;82.51;100428.16;4978340;28;20555;-80
2020/12/17 06:34:50;;;;;;;15.15;7.10;;;11.40;92.90;;;10.85;82.34;100433.59;4977667;28;20086;-81
2020/12/17 06:37:19;;;;;;;12.55;6.80;;;11.40;93.20;;;10.78;83.38;100431.81;4977361;28;20039;-81
2020/12/17 06:39:48;;;;;;;12.15;7.10;;;11.40;93.40;;;10.80;83.03;100435.19;4977259;28;20161;-80
2020/12/17 06:42:35;;;;;;;16.00;7.65;;;11.40;93.50;;;10.75;83.52;100449.34;4977626;28;20483;-80
2020/12/17 06:45:03;;;;;;;12.00;6.90;;;11.40;93.80;;;10.74;83.83;100450.41;4977479;28;20085;-80
2020/12/17 06:47:30;;;;;;;14.80;7.22;;;11.40;94.00;;;10.72;84.10;100449.75;4977668;28;20046;-80
2020/12/17 06:50:20;;;;;;;13.95;7.00;;;11.40;94.10;;;10.76;83.51;100462.78;4977214;28;20129;-80
2020/12/17 06:53:09;;;;;;;14.90;8.02;;;11.30;94.30;;;10.78;83.86;100465.31;4977244;28;20066;-80
2020/12/17 06:55:45;;;;;;;11.70;7.75;;;11.30;94.70;;;10.78;83.67;100462.59;4975432;28;20058;-80
2020/12/17 06:58:23;;;;;;;13.38;7.68;;;11.30;94.80;;;10.75;84.04;100471.13;4976941;28;20526;-80
2020/12/17 07:00:52;;;;;;;15.27;8.05;;;11.30;94.80;;;10.72;84.39;100476.97;4977315;28;20631;-80
2020/12/17 07:03:42;;;;;;;16.23;7.38;;;11.30;94.90;;;10.72;84.37;100487.84;4976708;28;20129;-80
2020/12/17 07:06:14;;;;;;;11.93;6.82;;;11.30;95.30;;;10.75;84.48;100490.19;4976430;28;20038;-80
2020/12/17 07:08:43;;;;;;;14.32;7.72;;;11.30;95.30;;;10.74;84.35;100502.94;4976659;28;20578;-80
2020/12/17 07:11:38;;;;;;;14.02;8.02;;;11.30;95.50;;;10.71;84.68;100503.31;4976556;28;20122;-80
2020/12/17 07:14:06;;;;;;;12.52;7.57;;;11.30;95.50;;;10.67;85.17;100512.06;4976659;28;20058;-79
2020/12/17 07:16:35;;;;;;;14.43;7.78;;;11.30;95.50;;;10.70;84.88;100514.38;4975106;28;20190;-79
2020/12/17 07:19:22;;;;;;;14.57;8.05;;;11.20;95.50;;;10.73;84.72;100523.03;4976050;28;20055;-80
2020/12/17 07:22:04;;;;;;;12.95;7.88;;;11.20;95.80;;;10.72;84.69;100520.50;4976350;28;20078;-80
2020/12/17 07:24:38;;;;;;;13.98;8.02;;;11.20;96.00;;;10.73;84.64;100527.63;4976654;28;20058;-80
2020/12/17 07:27:12;;;;;;;12.80;8.43;;;11.20;96.00;;;10.72;84.79;100542.28;4976454;28;20078;-79
2020/12/17 07:29:50;;;;;;;15.32;8.50;;;11.20;96.10;;;10.71;85.00;100543.31;4956557;28;20055;-79
2020/12/17 07:32:30;;;;;;;13.32;8.27;;;11.10;96.40;;;10.73;84.84;100549.41;4976289;28;20061;-79
2020/12/17 07:34:59;;;;;;;11.25;7.32;;;11.20;96.40;;;10.68;85.15;100557.28;4976415;28;20101;-79
2020/12/17 07:37:38;;;;;;;11.70;7.95;;;11.10;96.50;;;10.66;85.36;100564.78;4974591;28;20090;-79
2020/12/17 07:40:17;;;;;;;15.45;8.20;;;11.10;96.40;;;10.64;85.35;100565.00;4973844;28;20070;-80
2020/12/17 07:43:09;;;;;;;12.23;7.63;;;11.20;96.40;;;10.64;85.45;100566.84;4976489;28;20051;-80
2020/12/17 07:45:51;;;;;;;11.60;7.13;;;11.20;96.50;;;10.66;85.39;100572.94;4975706;28;20085;-80
2020/12/17 07:48:39;;;;;;;13.30;8.27;;;11.10;96.60;;;10.66;85.63;100576.53;4975456;28;20058;-79
2020/12/17 07:51:29;;;;;;;13.82;8.55;;;11.10;96.70;;;10.63;85.66;100582.34;4975455;28;20351;-79
2020/12/17 07:53:56;;;;;;;15.45;7.68;;;11.20;96.70;;;10.63;85.84;100584.22;4975603;28;20050;-79
2020/12/17 07:56:24;;;;;;;15.52;7.53;;;11.20;96.70;;;10.65;85.72;100593.03;4975047;28;20046;-80
2020/12/17 07:58:52;;;;;;;12.35;7.15;;;11.10;96.80;;;10.66;85.61;100598.31;4976057;28;20570;-80
2020/12/17 08:01:19;;;;;;;10.80;6.93;;;11.10;96.70;;;10.64;85.69;100594.06;4976082;28;20039;-80
2020/12/17 08:03:48;;;;;;;12.65;6.90;;;11.10;96.90;;;10.62;85.73;100596.97;4975956;28;20050;-79
2020/12/17 08:06:17;;;;;;;14.07;7.15;;;11.20;96.70;;;10.63;86.02;100604.09;4975067;28;20480;-79
2020/12/17 08:08:44;;;;;;;12.02;6.70;;;11.20;96.80;;;10.61;86.07;100610.78;4975269;28;20130;-79
2020/12/17 08:11:12;;;;;;;12.23;6.55;;;11.20;97.00;;;10.62;86.13;100604.28;4977192;28;20042;-79
2020/12/17 08:13:40;;;;;;;11.52;7.40;;;11.20;96.80;;;10.60;86.18;100614.50;4975476;28;20125;-79
2020/12/17 08:16:08;;;;;;;15.88;6.32;;;11.20;96.80;;;10.60;86.45;100614.50;4975236;28;20503;-80
2020/12/17 08:18:36;;;;;;;10.82;5.85;;;11.20;96.90;;;10.62;86.22;100624.16;4975391;28;20053;-80
2020/12/17 08:21:05;;;;;;;9.20;5.80;;;11.20;97.00;;;10.64;85.89;100630.31;4975110;28;20053;-80
2020/12/17 08:23:34;;;;;;;11.20;5.50;;;11.20;97.20;;;10.63;85.99;100638.66;4975333;28;20821;-79
2020/12/17 08:26:03;;;;;;;8.55;5.07;;;11.20;97.00;;;10.59;86.26;100646.31;4974917;28;20050;-80
2020/12/17 08:28:35;;;;;;;10.07;5.35;;;11.20;97.10;;;10.61;86.13;100643.44;4974843;28;20050;-79
2020/12/17 08:31:09;;;;;;;11.07;5.38;;;11.20;97.00;;;10.64;86.08;100645.78;4975289;28;20054;-79
2020/12/17 08:33:41;;;;;;;11.07;5.20;;;11.20;97.10;;;10.67;85.84;100659.03;4974128;28;20054;-80
2020/12/17 08:36:10;;;;;;;13.70;5.75;;;11.10;97.20;;;10.67;85.76;100656.31;4974638;28;20189;-79
2020/12/17 08:38:39;;;;;;;7.72;5.15;;;11.20;97.10;;;10.58;86.33;100660.94;4974824;28;20046;-79
2020/12/17 08:41:08;;;;;;;13.63;4.82;;;11.10;97.10;;;10.60;85.88;100658.88;4975502;28;20061;-79
2020/12/17 08:43:45;;;;;;;9.27;4.07;;;11.10;97.20;;;10.60;86.17;100666.22;4975444;28;20050;-79
2020/12/17 08:46:17;;;;;;;9.48;4.28;;;11.10;97.10;;;10.60;86.05;100671.66;4975225;28;20082;-79
2020/12/17 08:48:46;;;;;;;9.13;4.28;;;11.10;97.20;;;10.59;85.98;100668.09;4975006;28;20051;-79
2020/12/17 08:51:17;;;;;;;6.82;4.03;;;11.10;97.00;;;10.61;85.63;100676.09;4974419;28;20487;-80
2020/12/17 08:53:45;;;;;;;8.77;3.78;;;11.10;97.10;;;10.57;86.17;100681.03;4973274;28;20047;-78
2020/12/17 08:56:15;;;;;;;8.05;3.50;;;11.10;97.00;;;10.55;86.22;100683.09;4975122;28;20046;-79
2020/12/17 08:58:54;;;;;;;7.70;3.80;;;11.10;97.00;;;10.54;86.33;100686.84;4994258;28;20051;-79
2020/12/17 09:01:27;;;;;;;9.50;3.67;;;11.10;97.10;;;10.57;86.05;100695.50;4991824;28;20510;-79
2020/12/17 09:03:55;;;;;;;6.68;3.70;;;11.10;97.10;;;10.58;86.33;100699.03;4993554;28;20042;-79
2020/12/17 09:06:28;;;;;;;7.18;3.65;;;11.10;97.10;;;10.56;86.25;100691.06;4991942;28;20054;-79
2020/12/17 09:09:13;;;;;;;9.00;3.97;;;11.10;97.30;;;10.57;86.24;100700.94;4994311;28;20046;-79
2020/12/17 09:11:44;;;;;;;7.00;3.00;;;11.10;97.10;;;10.58;85.90;100699.03;4980033;28;20046;-79
2020/12/17 09:14:12;;;;;;;13.20;7.53;;;11.10;97.00;;;10.58;85.94;100709.94;4969745;28;20601;-79
2020/12/17 09:16:41;;;;;;;11.82;4.65;;;11.10;97.10;;;10.61;85.88;100717.75;4968506;28;20106;-79
2020/12/17 09:19:09;;;;;;;7.45;4.20;;;11.10;97.20;;;10.59;86.26;100711.66;4965934;28;20047;-79
2020/12/17 09:21:39;;;;;;;10.27;3.78;;;11.10;97.30;;;10.61;86.08;100719.63;4955647;29;20043;-79
2020/12/17 09:24:06;;;;;;;10.07;3.28;;;11.10;97.40;;;10.59;86.31;100727.13;4942373;28;20043;-79
2020/12/17 09:26:33;;;;;;;8.75;3.08;;;11.10;97.20;;;10.56;86.66;100725.59;4974210;28;20479;-79
2020/12/17 09:29:03;;;;;;;5.57;3.30;;;11.20;97.00;;;10.57;86.33;100728.16;4974447;28;20134;-79
2020/12/17 09:31:33;;;;;;;6.93;3.03;;;11.20;97.10;;;10.59;86.43;100736.13;4973827;28;20043;-79
2020/12/17 09:34:14;;;;;;;6.63;2.70;;;11.20;97.10;;;10.62;86.41;100732.19;4974134;28;20050;-79
2020/12/17 09:36:43;;;;;;;8.15;3.00;;;11.20;97.10;;;10.61;86.25;100741.41;4973978;28;20050;-79
2020/12/17 09:39:15;;;;;;;6.75;2.72;;;11.20;97.10;;;10.62;86.24;100740.38;4974387;28;20178;-80
2020/12/17 09:41:54;;;;;;;6.35;2.42;;;11.20;96.70;;;10.62;86.15;100746.66;4974219;28;20047;-81
2020/12/17 09:44:32;;;;;;;6.70;2.78;;;11.30;96.80;;;10.64;85.95;100749.19;4955562;29;20043;-80
2020/12/17 09:47:00;;;;;;;6.93;2.80;;;11.20;96.50;;;10.66;85.91;100744.41;4959143;28;20050;-80
2020/12/17 09:49:31;;;;;;;4.13;2.33;;;11.30;96.70;;;10.65;85.60;100754.47;4982468;28;20671;-80
2020/12/17 09:52:07;;;;;;;4.50;2.40;;;11.30;96.60;;;10.63;85.86;100750.25;4974896;28;20039;-80
2020/12/17 09:54:38;;;;;;;14.52;3.38;;;11.30;96.40;;;10.66;85.95;100756.19;4975003;28;20055;-80
2020/12/17 09:57:09;;;;;;;5.10;2.40;;;11.30;96.40;;;10.68;85.83;100745.09;4973295;28;20057;-80
2020/12/17 09:59:35;;;;;;;4.95;2.40;;;11.30;96.40;;;10.66;85.48;100756.19;4974862;28;20070;-80
2020/12/17 10:02:04;;;;;;;4.75;2.38;;;11.30;96.20;;;10.68;85.55;100753.25;4973780;28;20042;-80
2020/12/17 10:04:32;;;;;;;4.50;2.42;;;11.30;96.30;;;10.70;85.41;100762.94;4973399;28;20078;-80
2020/12/17 10:06:59;;;;;;;5.95;2.75;;;11.30;96.20;;;10.71;85.27;100771.94;4974010;28;20069;-80
2020/12/17 10:09:27;;;;;;;4.53;2.17;;;11.30;96.10;;;10.72;84.94;100766.34;4974009;28;20134;-80
2020/12/17 10:11:56;;;;;;;5.07;2.80;;;11.30;96.00;;;10.74;85.00;100779.78;4955023;29;20504;-80
2020/12/17 10:14:25;;;;;;;5.05;2.70;;;11.30;96.00;;;10.73;84.99;100783.50;4961620;28;20787;-80
2020/12/17 10:16:58;;;;;;;5.55;2.78;;;11.30;96.00;;;10.76;85.15;100783.16;4973708;28;20054;-80
2020/12/17 10:19:27;;;;;;;5.13;2.67;;;11.30;96.00;;;10.73;84.97;100788.97;4963803;28;20498;-80